createdAt,value
2016-10-04T00:00:59.511Z,9.46
2016-10-04T00:01:59.477Z,9.42
2016-10-04T00:02:59.139Z,9.4
2016-10-04T00:03:59.402Z,9.36
2016-10-04T00:04:59.064Z,9.29
2016-10-04T00:05:59.326Z,9.28
2016-10-04T00:06:59.291Z,9.32
2016-10-04T00:07:59.254Z,9.23
2016-10-04T00:08:59.216Z,9.24
2016-10-04T00:09:58.883Z,9.26
2016-10-04T00:10:59.143Z,9.2
2016-10-04T00:11:59.111Z,9.21
2016-10-04T00:12:59.077Z,9.15
2016-10-04T00:13:58.733Z,9.21
2016-10-04T00:14:58.697Z,9.02
2016-10-04T00:15:58.979Z,9.1
2016-10-04T00:16:58.926Z,9.08
2016-10-04T00:17:58.890Z,9.01
2016-10-04T00:18:58.243Z,8.96
2016-10-04T00:19:58.813Z,8.87
2016-10-04T00:20:58.780Z,8.87
2016-10-04T00:21:58.739Z,8.83
2016-10-04T00:22:58.400Z,8.79
2016-10-04T00:23:58.363Z,8.84
2016-10-04T00:24:58.325Z,8.79
2016-10-04T00:25:58.590Z,8.71
2016-10-04T00:26:58.253Z,8.73
2016-10-04T00:27:58.216Z,8.76
2016-10-04T00:28:58.479Z,8.71
2016-10-04T00:29:58.144Z,8.76
2016-10-04T00:30:57.809Z,8.7
2016-10-04T00:31:58.365Z,8.63
2016-10-04T00:32:58.334Z,8.7
2016-10-04T00:33:58.296Z,8.7
2016-10-04T00:34:58.254Z,8.71
2016-10-04T00:35:58.223Z,8.77
2016-10-04T00:36:57.888Z,8.8
2016-10-04T00:37:58.144Z,8.79
2016-10-04T00:38:57.817Z,8.74
2016-10-04T00:39:58.073Z,8.73
2016-10-04T00:40:58.035Z,8.76
2016-10-04T00:41:57.698Z,8.84
2016-10-04T00:42:57.654Z,8.83
2016-10-04T00:43:57.933Z,8.87
2016-10-04T00:44:57.589Z,8.98
2016-10-04T00:45:57.854Z,8.94
2016-10-04T00:46:57.815Z,8.91
2016-10-04T00:47:57.470Z,8.95
2016-10-04T00:48:57.748Z,9.04
2016-10-04T00:49:57.396Z,9.08
2016-10-04T00:50:57.658Z,9.04
2016-10-04T00:51:57.627Z,9.05
2016-10-04T00:52:57.591Z,9.05
2016-10-04T00:53:57.548Z,9.11
2016-10-04T00:54:57.213Z,9.01
2016-10-04T00:55:56.871Z,9.02
2016-10-04T00:56:57.460Z,8.99
2016-10-04T00:57:57.104Z,8.99
2016-10-04T00:58:57.065Z,9.05
2016-10-04T00:59:57.328Z,9.18
2016-10-04T01:00:57.307Z,8.99
2016-10-04T01:01:56.958Z,9.1
2016-10-04T01:02:57.222Z,9.04
2016-10-04T01:03:56.879Z,8.98
2016-10-04T01:04:56.843Z,8.96
2016-10-04T01:05:57.107Z,8.95
2016-10-04T01:06:56.764Z,8.94
2016-10-04T01:07:56.730Z,8.87
2016-10-04T01:08:56.994Z,8.91
2016-10-04T01:09:56.958Z,8.83
2016-10-04T01:10:56.624Z,8.89
2016-10-04T01:11:56.886Z,8.81
2016-10-04T01:12:56.843Z,8.83
2016-10-04T01:13:56.212Z,8.87
2016-10-04T01:14:56.772Z,8.87
2016-10-04T01:15:56.735Z,8.86
2016-10-04T01:16:56.699Z,8.77
2016-10-04T01:17:56.662Z,8.77
2016-10-04T01:18:56.639Z,8.79
2016-10-04T01:19:56.288Z,8.76
2016-10-04T01:20:56.550Z,8.77
2016-10-04T01:21:56.219Z,8.76
2016-10-04T01:22:56.477Z,8.7
2016-10-04T01:23:56.442Z,8.66
2016-10-04T01:24:56.113Z,8.62
2016-10-04T01:25:56.063Z,8.61
2016-10-04T01:26:56.324Z,8.63
2016-10-04T01:27:56.290Z,8.62
2016-10-04T01:28:56.248Z,8.56
2016-10-04T01:29:55.911Z,8.63
2016-10-04T01:30:55.577Z,8.56
2016-10-04T01:31:56.136Z,8.59
2016-10-04T01:32:56.105Z,8.56
2016-10-04T01:33:56.066Z,8.61
2016-10-04T01:34:56.028Z,8.58
2016-10-04T01:35:55.989Z,8.55
2016-10-04T01:36:55.653Z,8.59
2016-10-04T01:37:55.919Z,8.58
2016-10-04T01:38:55.579Z,8.61
2016-10-04T01:39:55.839Z,8.62
2016-10-04T01:40:55.812Z,8.61
2016-10-04T01:41:55.162Z,8.53
2016-10-04T01:42:55.730Z,8.7
2016-10-04T01:43:55.395Z,8.62
2016-10-04T01:44:55.359Z,8.71
2016-10-04T01:45:55.319Z,8.65
2016-10-04T01:46:55.581Z,8.62
2016-10-04T01:47:55.542Z,8.8
2016-10-04T01:48:55.505Z,8.84
2016-10-04T01:49:55.470Z,8.79
2016-10-04T01:50:55.129Z,8.83
2016-10-04T01:51:55.095Z,8.96
2016-10-04T01:52:55.357Z,8.94
2016-10-04T01:53:55.321Z,8.96
2016-10-04T01:54:55.282Z,9.02
2016-10-04T01:55:55.248Z,9.04
2016-10-04T01:56:54.906Z,9.02
2016-10-04T01:57:55.168Z,9.1
2016-10-04T01:58:55.128Z,9.1
2016-10-04T01:59:55.096Z,9.08
2016-10-04T02:00:55.062Z,9.1
2016-10-04T02:01:55.019Z,9.15
2016-10-04T02:02:54.985Z,9.13
2016-10-04T02:03:54.946Z,9.23
2016-10-04T02:04:54.609Z,9.14
2016-10-04T02:05:54.871Z,9.23
2016-10-04T02:06:54.527Z,9.24
2016-10-04T02:07:54.796Z,9.31
2016-10-04T02:08:54.760Z,9.33
2016-10-04T02:09:54.716Z,9.29
2016-10-04T02:10:54.688Z,9.32
2016-10-04T02:11:54.648Z,9.29
2016-10-04T02:12:54.608Z,9.43
2016-10-04T02:13:54.576Z,9.39
2016-10-04T02:14:54.240Z,9.43
2016-10-04T02:15:54.497Z,9.4
2016-10-04T02:16:54.464Z,9.47
2016-10-04T02:17:54.425Z,9.38
2016-10-04T02:18:54.388Z,9.5
2016-10-04T02:19:54.352Z,9.47
2016-10-04T02:20:54.311Z,9.51
2016-10-04T02:21:53.977Z,9.57
2016-10-04T02:22:53.942Z,9.51
2016-10-04T02:23:54.201Z,9.56
2016-10-04T02:24:54.163Z,9.66
2016-10-04T02:25:53.832Z,9.61
2016-10-04T02:26:53.792Z,9.65
2016-10-04T02:27:54.056Z,9.66
2016-10-04T02:28:54.020Z,9.75
2016-10-04T02:29:53.379Z,9.65
2016-10-04T02:30:53.645Z,9.75
2016-10-04T02:31:53.912Z,9.75
2016-10-04T02:32:53.575Z,9.75
2016-10-04T02:33:53.835Z,9.81
2016-10-04T02:34:53.496Z,9.83
2016-10-04T02:35:53.458Z,9.81
2016-10-04T02:36:53.723Z,9.78
2016-10-04T02:37:53.783Z,9.76
2016-10-04T02:38:53.047Z,9.84
2016-10-04T02:39:53.609Z,9.79
2016-10-04T02:40:53.274Z,9.83
2016-10-04T02:41:53.540Z,9.91
2016-10-04T02:42:53.502Z,9.87
2016-10-04T02:43:53.167Z,9.87
2016-10-04T02:44:53.433Z,9.96
2016-10-04T02:45:53.396Z,9.94
2016-10-04T02:46:53.356Z,9.96
2016-10-04T02:47:53.320Z,9.89
2016-10-04T02:48:53.375Z,9.96
2016-10-04T02:49:53.247Z,10.04
2016-10-04T02:50:53.208Z,10.07
2016-10-04T02:51:53.175Z,10.09
2016-10-04T02:52:53.136Z,10.04
2016-10-04T02:53:53.092Z,10.01
2016-10-04T02:54:53.064Z,10.04
2016-10-04T02:55:52.723Z,10.09
2016-10-04T02:56:52.991Z,10.22
2016-10-04T02:57:52.954Z,10.17
2016-10-04T02:58:52.911Z,10.2
2016-10-04T02:59:52.574Z,10.27
2016-10-04T03:00:52.539Z,10.26
2016-10-04T03:01:52.800Z,10.27
2016-10-04T03:02:52.464Z,10.36
2016-10-04T03:03:52.728Z,10.33
2016-10-04T03:04:52.694Z,10.33
2016-10-04T03:05:52.656Z,10.42
2016-10-04T03:06:52.618Z,10.44
2016-10-04T03:07:52.581Z,10.48
2016-10-04T03:08:52.549Z,10.51
2016-10-04T03:09:52.507Z,10.66
2016-10-04T03:10:52.471Z,10.53
2016-10-04T03:11:52.434Z,10.56
2016-10-04T03:12:52.398Z,10.61
2016-10-04T03:13:52.368Z,10.64
2016-10-04T03:14:52.336Z,10.68
2016-10-04T03:15:51.988Z,10.71
2016-10-04T03:16:51.952Z,10.7
2016-10-04T03:17:52.214Z,10.64
2016-10-04T03:18:51.881Z,10.68
2016-10-04T03:19:52.141Z,10.73
2016-10-04T03:20:51.804Z,10.7
2016-10-04T03:21:52.069Z,10.7
2016-10-04T03:22:52.030Z,10.84
2016-10-04T03:23:52.001Z,10.74
2016-10-04T03:24:51.959Z,10.82
2016-10-04T03:25:51.924Z,10.79
2016-10-04T03:26:51.885Z,10.68
2016-10-04T03:27:51.849Z,10.76
2016-10-04T03:28:51.521Z,10.88
2016-10-04T03:29:51.771Z,10.7
2016-10-04T03:30:51.742Z,10.78
2016-10-04T03:31:51.717Z,10.78
2016-10-04T03:32:51.668Z,10.74
2016-10-04T03:33:51.331Z,10.82
2016-10-04T03:34:51.599Z,10.88
2016-10-04T03:35:51.260Z,10.78
2016-10-04T03:36:51.523Z,10.85
2016-10-04T03:37:51.487Z,10.85
2016-10-04T03:38:51.451Z,10.85
2016-10-04T03:39:51.416Z,10.74
2016-10-04T03:40:51.378Z,10.81
2016-10-04T03:41:51.340Z,10.84
2016-10-04T03:42:51.305Z,10.89
2016-10-04T03:43:50.970Z,10.79
2016-10-04T03:44:50.927Z,10.78
2016-10-04T03:45:50.896Z,10.71
2016-10-04T03:46:51.158Z,10.79
2016-10-04T03:47:51.126Z,10.81
2016-10-04T03:48:50.787Z,10.79
2016-10-04T03:49:51.047Z,10.68
2016-10-04T03:50:50.714Z,10.82
2016-10-04T03:51:50.987Z,10.79
2016-10-04T03:52:50.941Z,10.73
2016-10-04T03:53:50.603Z,10.78
2016-10-04T03:54:50.870Z,10.79
2016-10-04T03:55:50.832Z,10.81
2016-10-04T03:56:50.798Z,10.79
2016-10-04T03:57:50.764Z,10.81
2016-10-04T03:58:50.723Z,10.85
2016-10-04T03:59:50.692Z,10.82
2016-10-04T04:00:50.648Z,10.81
2016-10-04T04:01:50.329Z,10.84
2016-10-04T04:02:50.575Z,10.76
2016-10-04T04:03:50.242Z,10.85
2016-10-04T04:04:50.506Z,10.79
2016-10-04T04:05:50.471Z,10.81
2016-10-04T04:06:50.437Z,10.85
2016-10-04T04:07:50.093Z,10.84
2016-10-04T04:08:50.360Z,10.81
2016-10-04T04:09:50.324Z,10.85
2016-10-04T04:10:50.291Z,10.82
2016-10-04T04:11:50.252Z,10.71
2016-10-04T04:12:50.214Z,10.81
2016-10-04T04:13:50.180Z,10.74
2016-10-04T04:14:49.841Z,10.76
2016-10-04T04:15:49.802Z,10.7
2016-10-04T04:16:50.068Z,10.67
2016-10-04T04:17:50.036Z,10.67
2016-10-04T04:18:49.992Z,10.67
2016-10-04T04:19:49.655Z,10.68
2016-10-04T04:20:49.926Z,10.67
2016-10-04T04:21:49.886Z,10.7
2016-10-04T04:22:49.848Z,10.68
2016-10-04T04:23:49.812Z,10.67
2016-10-04T04:24:49.476Z,10.67
2016-10-04T04:25:49.437Z,10.68
2016-10-04T04:26:49.707Z,10.66
2016-10-04T04:27:49.669Z,10.73
2016-10-04T04:28:49.348Z,10.66
2016-10-04T04:29:49.591Z,10.66
2016-10-04T04:30:49.561Z,10.66
2016-10-04T04:31:49.519Z,10.68
2016-10-04T04:32:49.490Z,10.63
2016-10-04T04:33:49.449Z,10.68
2016-10-04T04:34:49.410Z,10.64
2016-10-04T04:35:49.070Z,10.66
2016-10-04T04:36:49.338Z,10.68
2016-10-04T04:37:49.306Z,10.66
2016-10-04T04:38:49.271Z,10.63
2016-10-04T04:39:48.938Z,10.66
2016-10-04T04:40:48.891Z,10.61
2016-10-04T04:41:49.161Z,10.63
2016-10-04T04:42:48.813Z,10.66
2016-10-04T04:43:49.084Z,10.61
2016-10-04T04:44:48.748Z,10.53
2016-10-04T04:45:49.011Z,10.53
2016-10-04T04:46:48.673Z,10.56
2016-10-04T04:47:48.634Z,10.55
2016-10-04T04:48:48.903Z,10.59
2016-10-04T04:49:48.561Z,10.51
2016-10-04T04:50:48.824Z,10.47
2016-10-04T04:51:48.793Z,10.47
2016-10-04T04:52:48.452Z,10.48
2016-10-04T04:53:48.714Z,10.41
2016-10-04T04:54:48.379Z,10.42
2016-10-04T04:55:48.358Z,10.3
2016-10-04T04:56:48.605Z,10.34
2016-10-04T04:57:48.575Z,10.34
2016-10-04T04:58:48.539Z,10.22
2016-10-04T04:59:48.501Z,10.23
2016-10-04T05:00:48.457Z,10.2
2016-10-04T05:01:48.422Z,10.25
2016-10-04T05:02:48.392Z,10.15
2016-10-04T05:03:48.355Z,10.11
2016-10-04T05:04:48.312Z,10.04
2016-10-04T05:05:48.283Z,10.01
2016-10-04T05:06:47.935Z,9.93
2016-10-04T05:07:48.208Z,9.91
2016-10-04T05:08:48.182Z,9.81
2016-10-04T05:09:48.128Z,9.83
2016-10-04T05:10:48.093Z,9.76
2016-10-04T05:11:47.454Z,9.68
2016-10-04T05:12:48.027Z,9.66
2016-10-04T05:13:47.682Z,9.66
2016-10-04T05:14:47.945Z,9.68
2016-10-04T05:15:47.605Z,9.56
2016-10-04T05:16:47.575Z,9.57
2016-10-04T05:17:47.537Z,9.48
2016-10-04T05:18:47.802Z,9.47
2016-10-04T05:19:47.461Z,9.5
2016-10-04T05:20:47.421Z,9.48
2016-10-04T05:21:47.688Z,9.4
2016-10-04T05:22:47.650Z,9.36
2016-10-04T05:23:47.311Z,9.43
2016-10-04T05:24:47.280Z,9.35
2016-10-04T05:25:47.243Z,9.28
2016-10-04T05:26:47.505Z,9.29
2016-10-04T05:27:47.467Z,9.29
2016-10-04T05:28:47.130Z,9.26
2016-10-04T05:29:47.091Z,9.24
2016-10-04T05:30:47.355Z,9.23
2016-10-04T05:31:47.318Z,9.2
2016-10-04T05:32:47.281Z,9.24
2016-10-04T05:33:46.954Z,9.17
2016-10-04T05:34:46.919Z,9.1
2016-10-04T05:35:46.563Z,9.15
2016-10-04T05:36:47.135Z,9.1
2016-10-04T05:37:47.100Z,9.13
2016-10-04T05:38:46.454Z,9.01
2016-10-04T05:39:47.023Z,9.2
2016-10-04T05:40:46.682Z,9.14
2016-10-04T05:41:46.649Z,9.02
2016-10-04T05:42:46.612Z,8.99
2016-10-04T05:43:46.876Z,9.08
2016-10-04T05:44:46.837Z,8.99
2016-10-04T05:45:46.804Z,8.98
2016-10-04T05:46:46.772Z,9.04
2016-10-04T05:47:46.724Z,8.98
2016-10-04T05:48:46.685Z,9.05
2016-10-04T05:49:46.366Z,9.08
2016-10-04T05:50:46.616Z,9.18
2016-10-04T05:51:46.271Z,9.02
2016-10-04T05:52:46.236Z,9.11
2016-10-04T05:53:46.199Z,9.1
2016-10-04T05:54:46.466Z,9.24
2016-10-04T05:55:46.122Z,9.31
2016-10-04T05:56:46.093Z,9.28
2016-10-04T05:57:46.352Z,9.32
2016-10-04T05:58:45.707Z,9.5
2016-10-04T05:59:46.280Z,9.5
2016-10-04T06:00:45.637Z,9.54
2016-10-04T06:01:46.208Z,9.75
2016-10-04T06:02:46.168Z,9.89
2016-10-04T06:03:45.830Z,10.05
2016-10-04T06:04:46.094Z,10.36
2016-10-04T06:05:45.756Z,10.73
2016-10-04T06:06:46.016Z,11.04
2016-10-04T06:07:46.000Z,11.58
2016-10-04T06:08:45.654Z,12.05
2016-10-04T06:09:45.906Z,12.68
2016-10-04T06:10:45.872Z,13.07
2016-10-04T06:11:45.836Z,13.59
2016-10-04T06:12:45.798Z,14.03
2016-10-04T06:13:45.768Z,14.45
2016-10-04T06:14:45.429Z,14.92
2016-10-04T06:15:45.392Z,15.49
2016-10-04T06:16:45.662Z,16.15
2016-10-04T06:17:45.619Z,16.75
2016-10-04T06:18:45.601Z,17.21
2016-10-04T06:19:45.558Z,17.68
2016-10-04T06:20:45.516Z,17.93
2016-10-04T06:21:45.216Z,18.32
2016-10-04T06:22:45.461Z,18.6
2016-10-04T06:23:45.127Z,18.99
2016-10-04T06:24:45.384Z,19.1
2016-10-04T06:25:45.350Z,19.23
2016-10-04T06:26:45.030Z,19.19
2016-10-04T06:27:45.288Z,19.08
2016-10-04T06:28:44.646Z,18.98
2016-10-04T06:29:45.222Z,18.92
2016-10-04T06:30:44.602Z,18.78
2016-10-04T06:31:45.162Z,18.85
2016-10-04T06:32:45.142Z,18.91
2016-10-04T06:33:45.000Z,19.04
2016-10-04T06:34:44.763Z,19.31
2016-10-04T06:35:44.750Z,19.71
2016-10-04T06:36:44.707Z,19.99
2016-10-04T06:37:44.980Z,20.5
2016-10-04T06:38:44.652Z,21.07
2016-10-04T06:39:44.916Z,21.52
2016-10-04T06:40:44.901Z,22.09
2016-10-04T06:41:44.557Z,22.35
2016-10-04T06:42:44.531Z,22.83
2016-10-04T06:43:44.498Z,23.2
2016-10-04T06:44:44.476Z,23.51
2016-10-04T06:45:44.449Z,23.87
2016-10-04T06:46:44.715Z,24.22
2016-10-04T06:47:44.701Z,24.4
2016-10-04T06:48:44.362Z,24.57
2016-10-04T06:49:44.629Z,24.62
2016-10-04T06:50:44.307Z,24.73
2016-10-04T06:51:44.276Z,24.99
2016-10-04T06:52:44.246Z,24.99
2016-10-04T06:53:44.222Z,24.93
2016-10-04T06:54:44.195Z,25.1
2016-10-04T06:55:44.166Z,25.2
2016-10-04T06:56:44.142Z,25.28
2016-10-04T06:57:44.415Z,25.57
2016-10-04T06:58:44.095Z,25.87
2016-10-04T06:59:44.358Z,26.01
2016-10-04T07:00:44.339Z,26.01
2016-10-04T07:01:44.009Z,25.98
2016-10-04T07:02:43.979Z,25.85
2016-10-04T07:03:44.256Z,25.55
2016-10-04T07:04:43.931Z,25.62
2016-10-04T07:05:44.202Z,25.95
2016-10-04T07:06:43.877Z,26.12
2016-10-04T07:07:44.149Z,26.39
2016-10-04T07:08:44.123Z,26.65
2016-10-04T07:09:44.098Z,26.73
2016-10-04T07:10:44.075Z,26.73
2016-10-04T07:11:43.747Z,26.94
2016-10-04T07:12:43.717Z,26.95
2016-10-04T07:13:44.000Z,27.06
2016-10-04T07:14:43.974Z,27.24
2016-10-04T07:15:43.340Z,27.44
2016-10-04T07:16:43.925Z,27.9
2016-10-04T07:17:43.890Z,28.36
2016-10-04T07:18:43.874Z,28.68
2016-10-04T07:19:43.839Z,28.95
2016-10-04T07:20:43.810Z,29.28
2016-10-04T07:21:43.491Z,29.64
2016-10-04T07:22:43.764Z,29.94
2016-10-04T07:23:43.437Z,30.22
2016-10-04T07:24:43.711Z,30.37
2016-10-04T07:25:43.385Z,30.24
2016-10-04T07:26:43.363Z,30.43
2016-10-04T07:27:43.641Z,30.79
2016-10-04T07:28:43.313Z,30.79
2016-10-04T07:29:43.294Z,31.09
2016-10-04T07:30:43.566Z,31.21
2016-10-04T07:31:43.551Z,31.36
2016-10-04T07:32:43.225Z,31.5
2016-10-04T07:33:43.488Z,31.58
2016-10-04T07:34:43.500Z,31.89
2016-10-04T07:35:43.453Z,32.11
2016-10-04T07:36:43.422Z,32.22
2016-10-04T07:37:43.100Z,32.01
2016-10-04T07:38:43.378Z,31.78
2016-10-04T07:39:43.356Z,31.86
2016-10-04T07:40:43.036Z,31.92
2016-10-04T07:41:43.304Z,32.01
2016-10-04T07:42:42.983Z,31.8
2016-10-04T07:43:43.271Z,31.95
2016-10-04T07:44:42.944Z,32.04
2016-10-04T07:45:42.915Z,32.33
2016-10-04T07:46:42.886Z,32.3
2016-10-04T07:47:43.172Z,32.47
2016-10-04T07:48:43.152Z,32.72
2016-10-04T07:49:42.818Z,33.12
2016-10-04T07:50:43.103Z,33.35
2016-10-04T07:51:42.777Z,33.56
2016-10-04T07:52:42.753Z,33.72
2016-10-04T07:53:43.035Z,33.73
2016-10-04T07:54:43.012Z,33.57
2016-10-04T07:55:42.696Z,33.73
2016-10-04T07:56:42.667Z,33.78
2016-10-04T07:57:42.337Z,33.71
2016-10-04T07:58:42.922Z,33.76
2016-10-04T07:59:42.596Z,33.75
2016-10-04T08:00:42.875Z,33.32
2016-10-04T08:01:42.551Z,32.88
2016-10-04T08:02:42.525Z,32.77
2016-10-04T08:03:42.807Z,32.38
2016-10-04T08:04:42.789Z,32.07
2016-10-04T08:05:42.460Z,31.93
2016-10-04T08:06:42.438Z,32.29
2016-10-04T08:07:42.713Z,32.18
2016-10-04T08:08:42.708Z,31.93
2016-10-04T08:09:42.672Z,31.66
2016-10-04T08:10:42.647Z,31.61
2016-10-04T08:11:42.323Z,31.35
2016-10-04T08:12:42.305Z,31.28
2016-10-04T08:13:42.280Z,31.25
2016-10-04T08:14:42.257Z,30.84
2016-10-04T08:15:42.538Z,30.77
2016-10-04T08:16:42.212Z,30.83
2016-10-04T08:17:42.492Z,30.89
2016-10-04T08:18:42.164Z,30.72
2016-10-04T08:19:42.694Z,30.64
2016-10-04T08:20:42.120Z,30.42
2016-10-04T08:21:42.099Z,30.46
2016-10-04T08:22:42.375Z,30.86
2016-10-04T08:23:42.050Z,30.77
2016-10-04T08:24:42.030Z,30.82
2016-10-04T08:25:42.006Z,31.21
2016-10-04T08:26:42.287Z,31.54
2016-10-04T08:27:41.965Z,31.41
2016-10-04T08:28:42.246Z,31.2
2016-10-04T08:29:42.217Z,31.28
2016-10-04T08:30:42.200Z,31.26
2016-10-04T08:31:42.381Z,31.29
2016-10-04T08:32:42.147Z,31.2
2016-10-04T08:33:41.820Z,31.2
2016-10-04T08:34:42.102Z,31.01
2016-10-04T08:35:41.777Z,30.92
2016-10-04T08:36:42.060Z,31.2
2016-10-04T08:37:42.038Z,31.13
2016-10-04T08:38:42.223Z,30.84
2016-10-04T08:39:41.692Z,30.26
2016-10-04T08:40:41.970Z,29.86
2016-10-04T08:41:42.157Z,29.9
2016-10-04T08:42:41.622Z,30.35
2016-10-04T08:43:42.104Z,30.58
2016-10-04T08:44:41.574Z,30.92
2016-10-04T08:45:41.857Z,31.26
2016-10-04T08:46:41.432Z,31.66
2016-10-04T08:47:42.010Z,31.95
2016-10-04T08:48:41.786Z,32.08
2016-10-04T08:49:41.460Z,32.29
2016-10-04T08:50:41.745Z,32.32
2016-10-04T08:51:41.717Z,32.57
2016-10-04T08:52:41.712Z,32.43
2016-10-04T08:53:56.281Z,32.41
2016-10-04T08:54:41.649Z,32.4
2016-10-04T08:55:41.328Z,32.33
2016-10-04T08:56:41.607Z,32.13
2016-10-04T08:57:41.284Z,32.03
2016-10-04T08:58:41.254Z,31.93
2016-10-04T08:59:40.935Z,31.85
2016-10-04T09:00:41.516Z,31.89
2016-10-04T09:01:41.491Z,32.13
2016-10-04T09:02:41.489Z,32.23
2016-10-04T09:03:41.140Z,32.11
2016-10-04T09:04:41.427Z,32.03
2016-10-04T09:05:41.099Z,31.66
2016-10-04T09:06:41.077Z,30.83
2016-10-04T09:07:41.355Z,30.62
2016-10-04T09:08:41.333Z,30.61
2016-10-04T09:09:41.006Z,30.69
2016-10-04T09:10:40.987Z,30.97
2016-10-04T09:11:41.266Z,31.04
2016-10-04T09:12:40.638Z,30.98
2016-10-04T09:13:41.223Z,30.92
2016-10-04T09:14:41.094Z,30.92
2016-10-04T09:15:41.174Z,30.65
2016-10-04T09:16:40.846Z,30.43
2016-10-04T09:17:40.824Z,30.49
2016-10-04T09:18:41.107Z,30.39
2016-10-04T09:19:41.083Z,30.58
2016-10-04T09:20:41.057Z,30.65
2016-10-04T09:21:40.730Z,30.64
2016-10-04T09:22:41.011Z,30.62
2016-10-04T09:23:40.989Z,30.8
2016-10-04T09:24:40.964Z,30.67
2016-10-04T09:25:40.942Z,30.1
2016-10-04T09:26:40.633Z,29.28
2016-10-04T09:27:40.598Z,29.04
2016-10-04T09:28:40.873Z,29
2016-10-04T09:29:40.854Z,29.04
2016-10-04T09:30:40.526Z,29
2016-10-04T09:31:40.216Z,29.05
2016-10-04T09:32:40.481Z,29.05
2016-10-04T09:33:40.460Z,29.04
2016-10-04T09:34:40.434Z,29
2016-10-04T09:35:40.711Z,28.73
2016-10-04T09:36:40.695Z,28.9
2016-10-04T09:37:40.676Z,29.34
2016-10-04T09:38:40.337Z,29.63
2016-10-04T09:39:40.323Z,29.82
2016-10-04T09:40:40.604Z,30.26
2016-10-04T09:41:40.273Z,30.46
2016-10-04T09:42:40.253Z,30.43
2016-10-04T09:43:40.528Z,30.46
2016-10-04T09:44:40.208Z,30.64
2016-10-04T09:45:39.882Z,30.62
2016-10-04T09:46:40.461Z,30.72
2016-10-04T09:47:40.455Z,30.38
2016-10-04T09:48:40.421Z,30.2
2016-10-04T09:49:40.404Z,30.24
2016-10-04T09:50:40.374Z,30.17
2016-10-04T09:51:40.353Z,30.26
2016-10-04T09:52:40.338Z,30.11
2016-10-04T09:53:40.006Z,30.19
2016-10-04T09:54:39.981Z,30.27
2016-10-04T09:55:40.261Z,30.62
2016-10-04T09:56:39.940Z,30.69
2016-10-04T09:57:39.927Z,29.79
2016-10-04T09:58:39.892Z,29.31
2016-10-04T09:59:40.176Z,29
2016-10-04T10:00:39.868Z,28.66
2016-10-04T10:01:40.139Z,28.49
2016-10-04T10:02:40.108Z,28.37
2016-10-04T10:03:39.794Z,28.48
2016-10-04T10:04:39.770Z,28.81
2016-10-04T10:05:39.740Z,29.02
2016-10-04T10:06:40.038Z,29.27
2016-10-04T10:07:40.008Z,29.41
2016-10-04T10:08:39.973Z,29.33
2016-10-04T10:09:39.650Z,29.31
2016-10-04T10:10:39.929Z,29.3
2016-10-04T10:11:39.904Z,28.9
2016-10-04T10:12:39.882Z,28
2016-10-04T10:13:39.555Z,27.54
2016-10-04T10:14:39.535Z,27.41
2016-10-04T10:15:39.511Z,26.97
2016-10-04T10:16:39.791Z,26.89
2016-10-04T10:17:39.467Z,27
2016-10-04T10:18:39.446Z,27.31
2016-10-04T10:19:39.725Z,27.63
2016-10-04T10:20:39.397Z,27.84
2016-10-04T10:21:39.072Z,27.94
2016-10-04T10:22:39.658Z,28.24
2016-10-04T10:23:39.330Z,28.15
2016-10-04T10:24:39.616Z,27.9
2016-10-04T10:25:39.286Z,27.37
2016-10-04T10:26:39.569Z,27.12
2016-10-04T10:27:39.537Z,27.14
2016-10-04T10:28:39.513Z,27.19
2016-10-04T10:29:39.192Z,27.02
2016-10-04T10:30:39.477Z,27
2016-10-04T10:31:39.164Z,27.14
2016-10-04T10:32:39.429Z,26.69
2016-10-04T10:33:39.104Z,25.75
2016-10-04T10:34:39.076Z,25.33
2016-10-04T10:35:39.355Z,25.21
2016-10-04T10:36:39.031Z,25.5
2016-10-04T10:37:39.304Z,25.7
2016-10-04T10:38:39.284Z,25.9
2016-10-04T10:39:39.253Z,24.85
2016-10-04T10:40:39.232Z,24.4
2016-10-04T10:41:38.916Z,24.4
2016-10-04T10:42:39.202Z,24.34
2016-10-04T10:43:39.162Z,24.47
2016-10-04T10:44:39.136Z,24.3
2016-10-04T10:45:38.503Z,23.91
2016-10-04T10:46:39.087Z,23.93
2016-10-04T10:47:39.063Z,23.84
2016-10-04T10:48:39.042Z,23.65
2016-10-04T10:49:39.011Z,22.92
2016-10-04T10:50:38.684Z,22.76
2016-10-04T10:51:38.666Z,23.13
2016-10-04T10:52:38.940Z,23.42
2016-10-04T10:53:38.308Z,23.69
2016-10-04T10:54:38.589Z,23.94
2016-10-04T10:55:38.562Z,23.98
2016-10-04T10:56:38.846Z,24.06
2016-10-04T10:57:38.817Z,24.25
2016-10-04T10:58:38.790Z,24.05
2016-10-04T10:59:38.463Z,24.05
2016-10-04T11:00:38.741Z,24.02
2016-10-04T11:01:38.113Z,24.12
2016-10-04T11:02:38.692Z,24.03
2016-10-04T11:03:38.061Z,23.47
2016-10-04T11:04:38.636Z,22.9
2016-10-04T11:05:38.611Z,22.42
2016-10-04T11:06:38.295Z,22.06
2016-10-04T11:07:38.566Z,21.52
2016-10-04T11:08:38.538Z,21.04
2016-10-04T11:09:38.220Z,20.69
2016-10-04T11:10:38.489Z,20.52
2016-10-04T11:11:38.462Z,20.64
2016-10-04T11:12:38.133Z,20.77
2016-10-04T11:13:38.105Z,20.7
2016-10-04T11:14:38.388Z,20.42
2016-10-04T11:15:38.059Z,20.29
2016-10-04T11:16:38.334Z,20.24
2016-10-04T11:17:38.305Z,20.26
2016-10-04T11:18:38.275Z,20.24
2016-10-04T11:19:38.242Z,20.32
2016-10-04T11:20:38.218Z,20.2
2016-10-04T11:21:37.885Z,20.06
2016-10-04T11:22:37.860Z,20.01
2016-10-04T11:23:37.831Z,19.92
2016-10-04T11:24:38.113Z,19.91
2016-10-04T11:25:38.079Z,19.81
2016-10-04T11:26:37.454Z,19.46
2016-10-04T11:27:38.031Z,19.11
2016-10-04T11:28:37.993Z,18.92
2016-10-04T11:29:37.967Z,18.76
2016-10-04T11:30:37.634Z,18.52
2016-10-04T11:31:37.905Z,18.45
2016-10-04T11:32:37.876Z,18.17
2016-10-04T11:33:37.550Z,18.08
2016-10-04T11:34:37.826Z,17.87
2016-10-04T11:35:37.788Z,17.84
2016-10-04T11:36:37.760Z,17.82
2016-10-04T11:37:37.731Z,17.63
2016-10-04T11:38:37.702Z,17.54
2016-10-04T11:39:37.672Z,17.51
2016-10-04T11:40:37.342Z,17.44
2016-10-04T11:41:37.611Z,17.46
2016-10-04T11:42:37.582Z,17.55
2016-10-04T11:43:37.547Z,17.44
2016-10-04T11:44:37.219Z,17.46
2016-10-04T11:45:37.188Z,17.34
2016-10-04T11:46:37.457Z,17.41
2016-10-04T11:47:37.429Z,17.23
2016-10-04T11:48:37.095Z,16.96
2016-10-04T11:49:37.366Z,16.86
2016-10-04T11:50:37.334Z,16.53
2016-10-04T11:51:37.005Z,16.35
2016-10-04T11:52:37.273Z,16.21
2016-10-04T11:53:37.243Z,16.17
2016-10-04T11:54:36.914Z,16.17
2016-10-04T11:55:37.185Z,16.11
2016-10-04T11:56:36.845Z,16.24
2016-10-04T11:57:37.119Z,16.21
2016-10-04T11:58:36.783Z,16.08
2016-10-04T11:59:36.448Z,16.12
2016-10-04T12:00:36.715Z,16.09
2016-10-04T12:01:36.996Z,16.02
2016-10-04T12:02:36.660Z,16
2016-10-04T12:03:36.622Z,16.09
2016-10-04T12:04:36.896Z,16.04
2016-10-04T12:05:36.864Z,16.15
2016-10-04T12:06:36.831Z,16.2
2016-10-04T12:07:36.813Z,16.17
2016-10-04T12:08:36.765Z,16.23
2016-10-04T12:09:36.735Z,16.23
2016-10-04T12:10:36.403Z,16.24
2016-10-04T12:11:36.670Z,16.24
2016-10-04T12:12:36.642Z,16.12
2016-10-04T12:13:36.613Z,16.15
2016-10-04T12:14:36.571Z,16.08
2016-10-04T12:15:36.544Z,16
2016-10-04T12:16:36.205Z,15.97
2016-10-04T12:17:36.478Z,15.89
2016-10-04T12:18:36.442Z,15.87
2016-10-04T12:19:36.106Z,15.93
2016-10-04T12:20:36.379Z,15.93
2016-10-04T12:21:36.351Z,15.94
2016-10-04T12:22:36.315Z,16.01
2016-10-04T12:23:36.281Z,16.02
2016-10-04T12:24:36.250Z,16.05
2016-10-04T12:25:35.913Z,16.09
2016-10-04T12:26:36.180Z,16.04
2016-10-04T12:27:35.849Z,16.09
2016-10-04T12:28:36.115Z,16.09
2016-10-04T12:29:36.086Z,16.12
2016-10-04T12:30:36.052Z,16.23
2016-10-04T12:31:36.022Z,16.25
2016-10-04T12:32:35.686Z,16.25
2016-10-04T12:33:35.954Z,16.25
2016-10-04T12:34:35.331Z,16.12
2016-10-04T12:35:35.590Z,16.12
2016-10-04T12:36:35.854Z,16.2
2016-10-04T12:37:35.523Z,16.24
2016-10-04T12:38:35.487Z,16.33
2016-10-04T12:39:35.769Z,16.38
2016-10-04T12:40:35.724Z,16.41
2016-10-04T12:41:35.694Z,16.35
2016-10-04T12:42:35.665Z,16.49
2016-10-04T12:43:35.631Z,16.42
2016-10-04T12:44:35.598Z,16.34
2016-10-04T12:45:35.264Z,16.27
2016-10-04T12:46:35.538Z,16.23
2016-10-04T12:47:35.205Z,15.97
2016-10-04T12:48:35.465Z,15.89
2016-10-04T12:49:35.434Z,15.76
2016-10-04T12:50:35.100Z,15.74
2016-10-04T12:51:35.071Z,15.76
2016-10-04T12:52:35.339Z,15.76
2016-10-04T12:53:35.304Z,15.84
2016-10-04T12:54:34.968Z,15.87
2016-10-04T12:55:34.934Z,16
2016-10-04T12:56:35.206Z,16
2016-10-04T12:57:35.177Z,16.07
2016-10-04T12:58:35.144Z,16.25
2016-10-04T12:59:34.812Z,16.31
2016-10-04T13:00:35.074Z,16.27
2016-10-04T13:01:34.749Z,16.34
2016-10-04T13:02:35.013Z,16.33
2016-10-04T13:03:34.991Z,16.35